sensor_id;sensor_type;location;lat;lon;timestamp;P1;durP1;ratioP1;P2;durP2;ratioP2
78752;SDS011;68072;51.688;7.842;2024-02-15T00:01:51;8.57;;;5.75;;
78752;SDS011;68072;51.688;7.842;2024-02-15T00:04:16;6.93;;;4.20;;
78752;SDS011;68072;51.688;7.842;2024-02-15T00:09:09;9.73;;;6.00;;
78752;SDS011;68072;51.688;7.842;2024-02-15T00:11:34;6.40;;;5.07;;
78752;SDS011;68072;51.688;7.842;2024-02-15T00:13:59;7.00;;;5.30;;
78752;SDS011;68072;51.688;7.842;2024-02-15T00:16:26;10.93;;;5.53;;
78752;SDS011;68072;51.688;7.842;2024-02-15T00:18:52;8.43;;;5.78;;
78752;SDS011;68072;51.688;7.842;2024-02-15T00:21:21;12.85;;;5.90;;
78752;SDS011;68072;51.688;7.842;2024-02-15T00:23:48;7.50;;;4.85;;
78752;SDS011;68072;51.688;7.842;2024-02-15T00:26:15;10.43;;;5.97;;
78752;SDS011;68072;51.688;7.842;2024-02-15T00:28:44;9.60;;;5.95;;
78752;SDS011;68072;51.688;7.842;2024-02-15T00:31:09;10.57;;;5.72;;
78752;SDS011;68072;51.688;7.842;2024-02-15T00:33:35;10.70;;;5.78;;
78752;SDS011;68072;51.688;7.842;2024-02-15T00:38:26;6.57;;;4.53;;
78752;SDS011;68072;51.688;7.842;2024-02-15T00:40:52;9.87;;;5.73;;
78752;SDS011;68072;51.688;7.842;2024-02-15T00:43:18;15.70;;;5.55;;
78752;SDS011;68072;51.688;7.842;2024-02-15T00:45:44;10.43;;;6.75;;
78752;SDS011;68072;51.688;7.842;2024-02-15T00:48:11;10.20;;;6.35;;
78752;SDS011;68072;51.688;7.842;2024-02-15T00:50:37;11.63;;;6.28;;
78752;SDS011;68072;51.688;7.842;2024-02-15T00:53:03;11.98;;;6.63;;
78752;SDS011;68072;51.688;7.842;2024-02-15T00:55:28;11.38;;;6.43;;
78752;SDS011;68072;51.688;7.842;2024-02-15T00:57:53;9.10;;;5.90;;
78752;SDS011;68072;51.688;7.842;2024-02-15T01:00:19;9.20;;;6.40;;
78752;SDS011;68072;51.688;7.842;2024-02-15T01:02:45;10.70;;;6.45;;
78752;SDS011;68072;51.688;7.842;2024-02-15T01:05:10;17.07;;;6.33;;
78752;SDS011;68072;51.688;7.842;2024-02-15T01:07:36;8.35;;;4.82;;
78752;SDS011;68072;51.688;7.842;2024-02-15T01:10:03;10.07;;;7.00;;
78752;SDS011;68072;51.688;7.842;2024-02-15T01:12:28;12.65;;;6.55;;
78752;SDS011;68072;51.688;7.842;2024-02-15T01:14:54;9.68;;;6.47;;
78752;SDS011;68072;51.688;7.842;2024-02-15T01:17:20;10.50;;;6.18;;
78752;SDS011;68072;51.688;7.842;2024-02-15T01:19:46;11.30;;;7.23;;
78752;SDS011;68072;51.688;7.842;2024-02-15T01:22:11;9.77;;;6.53;;
78752;SDS011;68072;51.688;7.842;2024-02-15T01:24:36;10.53;;;6.67;;
78752;SDS011;68072;51.688;7.842;2024-02-15T01:27:01;11.87;;;6.80;;
78752;SDS011;68072;51.688;7.842;2024-02-15T01:29:26;10.20;;;6.17;;
78752;SDS011;68072;51.688;7.842;2024-02-15T01:31:52;11.80;;;6.97;;
78752;SDS011;68072;51.688;7.842;2024-02-15T01:34:17;11.87;;;7.67;;
78752;SDS011;68072;51.688;7.842;2024-02-15T01:36:42;11.03;;;6.90;;
78752;SDS011;68072;51.688;7.842;2024-02-15T01:39:08;12.00;;;7.60;;
78752;SDS011;68072;51.688;7.842;2024-02-15T01:41:33;11.43;;;6.60;;
78752;SDS011;68072;51.688;7.842;2024-02-15T01:43:58;12.33;;;7.37;;
78752;SDS011;68072;51.688;7.842;2024-02-15T01:46:23;12.57;;;7.33;;
78752;SDS011;68072;51.688;7.842;2024-02-15T01:48:50;10.60;;;7.28;;
78752;SDS011;68072;51.688;7.842;2024-02-15T01:51:15;15.43;;;7.60;;
78752;SDS011;68072;51.688;7.842;2024-02-15T01:53:41;10.65;;;6.85;;
78752;SDS011;68072;51.688;7.842;2024-02-15T01:56:07;15.60;;;7.15;;
78752;SDS011;68072;51.688;7.842;2024-02-15T01:58:32;14.55;;;6.32;;
78752;SDS011;68072;51.688;7.842;2024-02-15T02:00:58;12.00;;;7.38;;
78752;SDS011;68072;51.688;7.842;2024-02-15T02:03:26;14.70;;;7.60;;
78752;SDS011;68072;51.688;7.842;2024-02-15T02:05:51;14.20;;;7.87;;
78752;SDS011;68072;51.688;7.842;2024-02-15T02:08:17;13.52;;;6.72;;
78752;SDS011;68072;51.688;7.842;2024-02-15T02:10:42;10.83;;;6.67;;
78752;SDS011;68072;51.688;7.842;2024-02-15T02:13:08;9.63;;;5.93;;
78752;SDS011;68072;51.688;7.842;2024-02-15T02:18:01;16.43;;;6.67;;
78752;SDS011;68072;51.688;7.842;2024-02-15T02:20:31;8.70;;;5.80;;
78752;SDS011;68072;51.688;7.842;2024-02-15T02:23:16;11.90;;;7.07;;
78752;SDS011;68072;51.688;7.842;2024-02-15T02:25:43;13.52;;;7.45;;
78752;SDS011;68072;51.688;7.842;2024-02-15T02:28:09;14.05;;;7.45;;
78752;SDS011;68072;51.688;7.842;2024-02-15T02:30:36;11.55;;;7.25;;
78752;SDS011;68072;51.688;7.842;2024-02-15T02:33:02;12.63;;;6.25;;
78752;SDS011;68072;51.688;7.842;2024-02-15T02:35:27;10.77;;;7.28;;
78752;SDS011;68072;51.688;7.842;2024-02-15T02:37:55;15.88;;;7.43;;
78752;SDS011;68072;51.688;7.842;2024-02-15T02:40:20;12.23;;;7.50;;
78752;SDS011;68072;51.688;7.842;2024-02-15T02:42:55;14.13;;;7.50;;
78752;SDS011;68072;51.688;7.842;2024-02-15T02:45:21;13.40;;;7.75;;
78752;SDS011;68072;51.688;7.842;2024-02-15T02:47:50;15.77;;;7.60;;
78752;SDS011;68072;51.688;7.842;2024-02-15T02:50:16;14.27;;;7.35;;
78752;SDS011;68072;51.688;7.842;2024-02-15T02:52:41;17.10;;;7.47;;
78752;SDS011;68072;51.688;7.842;2024-02-15T02:55:07;11.60;;;6.43;;
78752;SDS011;68072;51.688;7.842;2024-02-15T02:59:58;11.90;;;6.70;;
78752;SDS011;68072;51.688;7.842;2024-02-15T03:02:24;13.60;;;7.15;;
78752;SDS011;68072;51.688;7.842;2024-02-15T03:04:49;12.77;;;6.53;;
78752;SDS011;68072;51.688;7.842;2024-02-15T03:07:15;14.18;;;6.88;;
78752;SDS011;68072;51.688;7.842;2024-02-15T03:09:42;12.98;;;6.30;;
78752;SDS011;68072;51.688;7.842;2024-02-15T03:12:07;13.13;;;6.63;;
78752;SDS011;68072;51.688;7.842;2024-02-15T03:14:34;10.65;;;6.40;;
78752;SDS011;68072;51.688;7.842;2024-02-15T03:17:00;10.88;;;6.57;;
78752;SDS011;68072;51.688;7.842;2024-02-15T03:19:28;11.60;;;7.07;;
78752;SDS011;68072;51.688;7.842;2024-02-15T03:21:56;11.65;;;6.45;;
78752;SDS011;68072;51.688;7.842;2024-02-15T03:24:21;10.85;;;6.45;;
78752;SDS011;68072;51.688;7.842;2024-02-15T03:26:46;10.93;;;6.07;;
78752;SDS011;68072;51.688;7.842;2024-02-15T03:29:12;11.00;;;6.10;;
78752;SDS011;68072;51.688;7.842;2024-02-15T03:31:37;12.97;;;7.60;;
78752;SDS011;68072;51.688;7.842;2024-02-15T03:34:03;12.57;;;6.20;;
78752;SDS011;68072;51.688;7.842;2024-02-15T03:36:28;8.18;;;5.03;;
78752;SDS011;68072;51.688;7.842;2024-02-15T03:38:54;12.90;;;6.97;;
78752;SDS011;68072;51.688;7.842;2024-02-15T03:41:19;15.55;;;6.55;;
78752;SDS011;68072;51.688;7.842;2024-02-15T03:43:46;11.70;;;6.90;;
78752;SDS011;68072;51.688;7.842;2024-02-15T03:46:12;16.75;;;7.20;;
78752;SDS011;68072;51.688;7.842;2024-02-15T03:48:38;10.90;;;6.82;;
78752;SDS011;68072;51.688;7.842;2024-02-15T03:51:04;8.52;;;5.78;;
78752;SDS011;68072;51.688;7.842;2024-02-15T03:53:31;12.10;;;6.22;;
78752;SDS011;68072;51.688;7.842;2024-02-15T03:55:58;10.93;;;6.15;;
78752;SDS011;68072;51.688;7.842;2024-02-15T03:58:23;14.97;;;6.57;;
78752;SDS011;68072;51.688;7.842;2024-02-15T04:00:49;11.33;;;6.80;;
78752;SDS011;68072;51.688;7.842;2024-02-15T04:03:14;18.17;;;6.67;;
78752;SDS011;68072;51.688;7.842;2024-02-15T04:05:39;13.50;;;6.67;;
78752;SDS011;68072;51.688;7.842;2024-02-15T04:08:04;16.07;;;6.47;;
78752;SDS011;68072;51.688;7.842;2024-02-15T04:10:31;14.85;;;6.05;;
78752;SDS011;68072;51.688;7.842;2024-02-15T04:12:58;16.13;;;6.60;;
78752;SDS011;68072;51.688;7.842;2024-02-15T04:15:23;11.43;;;6.35;;
78752;SDS011;68072;51.688;7.842;2024-02-15T04:17:49;8.48;;;4.40;;
78752;SDS011;68072;51.688;7.842;2024-02-15T04:20:20;12.07;;;6.50;;
78752;SDS011;68072;51.688;7.842;2024-02-15T04:22:46;11.48;;;5.82;;
78752;SDS011;68072;51.688;7.842;2024-02-15T04:27:41;9.95;;;6.13;;
78752;SDS011;68072;51.688;7.842;2024-02-15T04:30:06;8.17;;;5.47;;
78752;SDS011;68072;51.688;7.842;2024-02-15T04:32:34;18.33;;;6.00;;
78752;SDS011;68072;51.688;7.842;2024-02-15T04:35:01;9.48;;;5.85;;
78752;SDS011;68072;51.688;7.842;2024-02-15T04:37:28;11.90;;;6.07;;
78752;SDS011;68072;51.688;7.842;2024-02-15T04:39:54;10.30;;;6.45;;
78752;SDS011;68072;51.688;7.842;2024-02-15T04:42:19;13.50;;;6.75;;
78752;SDS011;68072;51.688;7.842;2024-02-15T04:44:45;11.25;;;6.18;;
78752;SDS011;68072;51.688;7.842;2024-02-15T04:47:10;12.20;;;6.43;;
78752;SDS011;68072;51.688;7.842;2024-02-15T04:49:36;9.43;;;5.70;;
78752;SDS011;68072;51.688;7.842;2024-02-15T04:52:03;12.82;;;6.20;;
78752;SDS011;68072;51.688;7.842;2024-02-15T04:54:29;12.27;;;6.15;;
78752;SDS011;68072;51.688;7.842;2024-02-15T04:56:54;13.32;;;6.40;;
78752;SDS011;68072;51.688;7.842;2024-02-15T04:59:20;11.43;;;6.70;;
78752;SDS011;68072;51.688;7.842;2024-02-15T05:01:46;18.58;;;6.88;;
78752;SDS011;68072;51.688;7.842;2024-02-15T05:04:12;13.17;;;6.73;;
78752;SDS011;68072;51.688;7.842;2024-02-15T05:06:38;11.18;;;6.82;;
78752;SDS011;68072;51.688;7.842;2024-02-15T05:09:04;19.37;;;6.73;;
78752;SDS011;68072;51.688;7.842;2024-02-15T05:11:39;13.85;;;6.38;;
78752;SDS011;68072;51.688;7.842;2024-02-15T05:14:06;10.85;;;6.00;;
78752;SDS011;68072;51.688;7.842;2024-02-15T05:16:35;12.85;;;6.15;;
78752;SDS011;68072;51.688;7.842;2024-02-15T05:19:08;14.52;;;7.30;;
78752;SDS011;68072;51.688;7.842;2024-02-15T05:21:37;11.50;;;6.32;;
78752;SDS011;68072;51.688;7.842;2024-02-15T05:24:05;11.27;;;5.82;;
78752;SDS011;68072;51.688;7.842;2024-02-15T05:26:35;14.70;;;6.82;;
78752;SDS011;68072;51.688;7.842;2024-02-15T05:29:00;11.32;;;6.10;;
78752;SDS011;68072;51.688;7.842;2024-02-15T05:31:26;15.30;;;6.03;;
78752;SDS011;68072;51.688;7.842;2024-02-15T05:33:52;11.70;;;6.05;;
78752;SDS011;68072;51.688;7.842;2024-02-15T05:38:46;10.57;;;5.72;;
78752;SDS011;68072;51.688;7.842;2024-02-15T05:41:12;10.63;;;5.47;;
78752;SDS011;68072;51.688;7.842;2024-02-15T05:43:38;11.80;;;6.57;;
78752;SDS011;68072;51.688;7.842;2024-02-15T05:46:03;9.82;;;5.93;;
78752;SDS011;68072;51.688;7.842;2024-02-15T05:48:29;12.07;;;6.00;;
78752;SDS011;68072;51.688;7.842;2024-02-15T05:50:57;13.17;;;6.17;;
78752;SDS011;68072;51.688;7.842;2024-02-15T05:53:24;12.70;;;6.05;;
78752;SDS011;68072;51.688;7.842;2024-02-15T05:55:49;10.57;;;6.43;;
78752;SDS011;68072;51.688;7.842;2024-02-15T05:58:15;9.82;;;6.22;;
78752;SDS011;68072;51.688;7.842;2024-02-15T06:00:41;12.57;;;6.00;;
78752;SDS011;68072;51.688;7.842;2024-02-15T06:03:06;8.45;;;5.53;;
78752;SDS011;68072;51.688;7.842;2024-02-15T06:05:34;11.20;;;5.13;;
78752;SDS011;68072;51.688;7.842;2024-02-15T06:07:59;8.38;;;5.53;;
78752;SDS011;68072;51.688;7.842;2024-02-15T06:10:24;14.80;;;6.03;;
78752;SDS011;68072;51.688;7.842;2024-02-15T06:12:50;11.30;;;6.03;;
78752;SDS011;68072;51.688;7.842;2024-02-15T06:15:16;11.52;;;5.43;;
78752;SDS011;68072;51.688;7.842;2024-02-15T06:17:43;8.98;;;5.43;;
78752;SDS011;68072;51.688;7.842;2024-02-15T06:20:10;9.65;;;5.45;;
78752;SDS011;68072;51.688;7.842;2024-02-15T06:22:37;9.27;;;4.80;;
78752;SDS011;68072;51.688;7.842;2024-02-15T06:25:03;10.65;;;4.70;;
78752;SDS011;68072;51.688;7.842;2024-02-15T06:27:28;10.05;;;4.95;;
78752;SDS011;68072;51.688;7.842;2024-02-15T06:29:53;8.37;;;4.17;;
78752;SDS011;68072;51.688;7.842;2024-02-15T06:32:37;5.03;;;3.70;;
78752;SDS011;68072;51.688;7.842;2024-02-15T06:35:21;8.27;;;4.30;;
78752;SDS011;68072;51.688;7.842;2024-02-15T06:38:06;5.45;;;3.70;;
78752;SDS011;68072;51.688;7.842;2024-02-15T06:40:50;6.15;;;3.47;;
78752;SDS011;68072;51.688;7.842;2024-02-15T06:43:15;4.87;;;3.30;;
78752;SDS011;68072;51.688;7.842;2024-02-15T06:45:43;5.03;;;3.00;;
78752;SDS011;68072;51.688;7.842;2024-02-15T06:48:11;5.88;;;2.70;;
78752;SDS011;68072;51.688;7.842;2024-02-15T06:50:38;5.97;;;3.00;;
78752;SDS011;68072;51.688;7.842;2024-02-15T06:53:04;4.40;;;3.10;;
78752;SDS011;68072;51.688;7.842;2024-02-15T06:55:32;4.63;;;2.90;;
78752;SDS011;68072;51.688;7.842;2024-02-15T06:57:58;3.58;;;2.42;;
78752;SDS011;68072;51.688;7.842;2024-02-15T07:00:24;4.32;;;2.00;;
78752;SDS011;68072;51.688;7.842;2024-02-15T07:02:51;2.92;;;2.30;;
78752;SDS011;68072;51.688;7.842;2024-02-15T07:05:16;6.85;;;2.75;;
78752;SDS011;68072;51.688;7.842;2024-02-15T07:07:43;4.03;;;2.45;;
78752;SDS011;68072;51.688;7.842;2024-02-15T07:10:09;3.22;;;2.17;;
78752;SDS011;68072;51.688;7.842;2024-02-15T07:12:37;3.72;;;2.25;;
78752;SDS011;68072;51.688;7.842;2024-02-15T07:15:04;5.15;;;2.22;;
78752;SDS011;68072;51.688;7.842;2024-02-15T07:17:31;2.58;;;2.38;;
78752;SDS011;68072;51.688;7.842;2024-02-15T07:19:57;2.70;;;2.13;;
78752;SDS011;68072;51.688;7.842;2024-02-15T07:22:23;4.83;;;2.30;;
78752;SDS011;68072;51.688;7.842;2024-02-15T07:24:48;7.45;;;2.38;;
78752;SDS011;68072;51.688;7.842;2024-02-15T07:27:13;2.27;;;2.03;;
78752;SDS011;68072;51.688;7.842;2024-02-15T07:29:38;2.00;;;1.77;;
78752;SDS011;68072;51.688;7.842;2024-02-15T07:32:04;6.83;;;2.57;;
78752;SDS011;68072;51.688;7.842;2024-02-15T07:34:30;5.03;;;2.03;;
78752;SDS011;68072;51.688;7.842;2024-02-15T07:36:56;4.45;;;2.15;;
78752;SDS011;68072;51.688;7.842;2024-02-15T07:39:24;3.47;;;2.22;;
78752;SDS011;68072;51.688;7.842;2024-02-15T07:41:53;3.22;;;1.80;;
78752;SDS011;68072;51.688;7.842;2024-02-15T07:44:19;5.03;;;2.50;;
78752;SDS011;68072;51.688;7.842;2024-02-15T07:46:45;5.27;;;2.37;;
78752;SDS011;68072;51.688;7.842;2024-02-15T07:49:11;6.47;;;2.25;;
78752;SDS011;68072;51.688;7.842;2024-02-15T07:51:36;1.92;;;1.83;;
78752;SDS011;68072;51.688;7.842;2024-02-15T07:54:02;2.10;;;1.90;;
78752;SDS011;68072;51.688;7.842;2024-02-15T07:56:28;1.70;;;1.60;;
78752;SDS011;68072;51.688;7.842;2024-02-15T07:58:53;3.97;;;2.00;;
78752;SDS011;68072;51.688;7.842;2024-02-15T08:01:19;5.05;;;2.22;;
78752;SDS011;68072;51.688;7.842;2024-02-15T08:03:48;2.30;;;2.03;;
78752;SDS011;68072;51.688;7.842;2024-02-15T08:06:14;6.38;;;2.63;;
78752;SDS011;68072;51.688;7.842;2024-02-15T08:08:41;3.45;;;2.30;;
78752;SDS011;68072;51.688;7.842;2024-02-15T08:11:07;6.05;;;2.20;;
78752;SDS011;68072;51.688;7.842;2024-02-15T08:13:40;4.72;;;2.13;;
78752;SDS011;68072;51.688;7.842;2024-02-15T08:16:05;6.28;;;2.50;;
78752;SDS011;68072;51.688;7.842;2024-02-15T08:18:30;3.37;;;1.80;;
78752;SDS011;68072;51.688;7.842;2024-02-15T08:20:56;4.07;;;2.10;;
78752;SDS011;68072;51.688;7.842;2024-02-15T08:23:21;3.33;;;2.38;;
78752;SDS011;68072;51.688;7.842;2024-02-15T08:25:47;9.60;;;2.20;;
78752;SDS011;68072;51.688;7.842;2024-02-15T08:28:12;7.57;;;2.35;;
78752;SDS011;68072;51.688;7.842;2024-02-15T08:30:38;4.50;;;2.33;;
78752;SDS011;68072;51.688;7.842;2024-02-15T08:33:03;8.10;;;2.80;;
78752;SDS011;68072;51.688;7.842;2024-02-15T08:35:29;4.93;;;2.22;;
78752;SDS011;68072;51.688;7.842;2024-02-15T08:37:54;4.97;;;2.00;;
78752;SDS011;68072;51.688;7.842;2024-02-15T08:40:20;3.83;;;2.40;;
78752;SDS011;68072;51.688;7.842;2024-02-15T08:42:50;3.40;;;2.20;;
78752;SDS011;68072;51.688;7.842;2024-02-15T08:45:15;5.67;;;2.23;;
78752;SDS011;68072;51.688;7.842;2024-02-15T08:47:41;5.67;;;2.13;;
78752;SDS011;68072;51.688;7.842;2024-02-15T08:50:07;2.25;;;1.88;;
78752;SDS011;68072;51.688;7.842;2024-02-15T08:52:34;3.88;;;1.92;;
78752;SDS011;68072;51.688;7.842;2024-02-15T08:55:02;9.50;;;2.45;;
78752;SDS011;68072;51.688;7.842;2024-02-15T08:57:31;4.72;;;2.08;;
78752;SDS011;68072;51.688;7.842;2024-02-15T08:59:56;5.13;;;2.27;;
78752;SDS011;68072;51.688;7.842;2024-02-15T09:02:22;2.60;;;1.73;;
78752;SDS011;68072;51.688;7.842;2024-02-15T09:04:47;6.80;;;1.97;;
78752;SDS011;68072;51.688;7.842;2024-02-15T09:07:12;3.03;;;2.23;;
78752;SDS011;68072;51.688;7.842;2024-02-15T09:09:37;7.05;;;2.85;;
78752;SDS011;68072;51.688;7.842;2024-02-15T09:12:03;5.10;;;2.67;;
78752;SDS011;68072;51.688;7.842;2024-02-15T09:14:34;6.90;;;1.90;;
78752;SDS011;68072;51.688;7.842;2024-02-15T09:17:01;2.55;;;2.35;;
78752;SDS011;68072;51.688;7.842;2024-02-15T09:19:32;2.78;;;2.25;;
78752;SDS011;68072;51.688;7.842;2024-02-15T09:21:57;2.07;;;1.90;;
78752;SDS011;68072;51.688;7.842;2024-02-15T09:24:22;4.00;;;2.10;;
78752;SDS011;68072;51.688;7.842;2024-02-15T09:26:50;6.30;;;2.58;;
78752;SDS011;68072;51.688;7.842;2024-02-15T09:29:15;5.28;;;2.22;;
78752;SDS011;68072;51.688;7.842;2024-02-15T09:31:40;4.13;;;2.07;;
78752;SDS011;68072;51.688;7.842;2024-02-15T09:34:06;3.78;;;1.65;;
78752;SDS011;68072;51.688;7.842;2024-02-15T09:36:34;3.67;;;1.63;;
78752;SDS011;68072;51.688;7.842;2024-02-15T09:39:03;4.50;;;1.70;;
78752;SDS011;68072;51.688;7.842;2024-02-15T09:41:28;4.53;;;2.13;;
78752;SDS011;68072;51.688;7.842;2024-02-15T09:43:53;4.80;;;1.60;;
78752;SDS011;68072;51.688;7.842;2024-02-15T09:46:18;4.10;;;1.90;;
78752;SDS011;68072;51.688;7.842;2024-02-15T09:48:46;5.90;;;2.00;;
78752;SDS011;68072;51.688;7.842;2024-02-15T09:51:12;2.28;;;1.50;;
78752;SDS011;68072;51.688;7.842;2024-02-15T09:53:38;2.03;;;1.48;;
78752;SDS011;68072;51.688;7.842;2024-02-15T09:56:05;2.65;;;1.45;;
78752;SDS011;68072;51.688;7.842;2024-02-15T09:58:31;5.07;;;1.90;;
78752;SDS011;68072;51.688;7.842;2024-02-15T10:01:01;4.10;;;1.83;;
78752;SDS011;68072;51.688;7.842;2024-02-15T10:03:29;4.20;;;1.58;;
78752;SDS011;68072;51.688;7.842;2024-02-15T10:05:56;3.63;;;1.70;;
78752;SDS011;68072;51.688;7.842;2024-02-15T10:08:22;3.55;;;1.98;;
78752;SDS011;68072;51.688;7.842;2024-02-15T10:11:08;5.15;;;2.03;;
78752;SDS011;68072;51.688;7.842;2024-02-15T10:13:34;3.88;;;1.77;;
78752;SDS011;68072;51.688;7.842;2024-02-15T10:16:13;5.45;;;2.13;;
78752;SDS011;68072;51.688;7.842;2024-02-15T10:18:38;3.83;;;1.60;;
78752;SDS011;68072;51.688;7.842;2024-02-15T10:21:04;3.20;;;1.42;;
78752;SDS011;68072;51.688;7.842;2024-02-15T10:23:30;1.52;;;1.42;;
78752;SDS011;68072;51.688;7.842;2024-02-15T10:25:55;3.73;;;1.80;;
78752;SDS011;68072;51.688;7.842;2024-02-15T10:28:21;2.58;;;1.73;;
78752;SDS011;68072;51.688;7.842;2024-02-15T10:30:49;2.47;;;2.25;;
78752;SDS011;68072;51.688;7.842;2024-02-15T10:33:18;3.08;;;1.83;;
78752;SDS011;68072;51.688;7.842;2024-02-15T10:35:45;2.47;;;2.08;;
78752;SDS011;68072;51.688;7.842;2024-02-15T10:38:10;2.57;;;1.70;;
78752;SDS011;68072;51.688;7.842;2024-02-15T10:40:39;2.70;;;2.00;;
78752;SDS011;68072;51.688;7.842;2024-02-15T10:43:06;1.73;;;1.63;;
78752;SDS011;68072;51.688;7.842;2024-02-15T10:45:32;2.15;;;1.92;;
78752;SDS011;68072;51.688;7.842;2024-02-15T10:47:58;4.78;;;2.28;;
78752;SDS011;68072;51.688;7.842;2024-02-15T10:50:23;1.63;;;1.52;;
78752;SDS011;68072;51.688;7.842;2024-02-15T10:52:56;5.82;;;1.83;;
78752;SDS011;68072;51.688;7.842;2024-02-15T10:55:23;3.15;;;1.67;;
78752;SDS011;68072;51.688;7.842;2024-02-15T10:57:52;1.70;;;1.60;;
78752;SDS011;68072;51.688;7.842;2024-02-15T11:00:19;4.13;;;1.80;;
78752;SDS011;68072;51.688;7.842;2024-02-15T11:05:14;2.20;;;1.95;;
78752;SDS011;68072;51.688;7.842;2024-02-15T11:07:46;4.80;;;2.10;;
78752;SDS011;68072;51.688;7.842;2024-02-15T11:10:11;7.33;;;2.67;;
78752;SDS011;68072;51.688;7.842;2024-02-15T11:12:41;7.60;;;2.15;;
78752;SDS011;68072;51.688;7.842;2024-02-15T11:15:08;7.68;;;2.75;;
78752;SDS011;68072;51.688;7.842;2024-02-15T11:20:02;3.60;;;2.47;;
78752;SDS011;68072;51.688;7.842;2024-02-15T11:22:35;4.22;;;2.25;;
78752;SDS011;68072;51.688;7.842;2024-02-15T11:25:02;3.97;;;2.60;;
78752;SDS011;68072;51.688;7.842;2024-02-15T11:27:36;6.90;;;2.15;;
78752;SDS011;68072;51.688;7.842;2024-02-15T11:30:02;5.85;;;2.78;;
78752;SDS011;68072;51.688;7.842;2024-02-15T11:32:47;6.70;;;2.65;;
78752;SDS011;68072;51.688;7.842;2024-02-15T11:35:26;6.07;;;2.83;;
78752;SDS011;68072;51.688;7.842;2024-02-15T11:37:56;3.83;;;2.50;;
78752;SDS011;68072;51.688;7.842;2024-02-15T11:43:07;4.00;;;3.17;;
78752;SDS011;68072;51.688;7.842;2024-02-15T11:45:34;4.50;;;2.90;;
78752;SDS011;68072;51.688;7.842;2024-02-15T11:48:04;5.70;;;2.72;;
78752;SDS011;68072;51.688;7.842;2024-02-15T11:50:33;3.30;;;2.60;;
78752;SDS011;68072;51.688;7.842;2024-02-15T11:53:04;3.78;;;2.20;;
78752;SDS011;68072;51.688;7.842;2024-02-15T11:55:41;3.67;;;2.28;;
78752;SDS011;68072;51.688;7.842;2024-02-15T11:58:08;2.38;;;2.17;;
78752;SDS011;68072;51.688;7.842;2024-02-15T12:00:33;3.85;;;2.15;;
78752;SDS011;68072;51.688;7.842;2024-02-15T12:03:17;6.28;;;2.58;;
78752;SDS011;68072;51.688;7.842;2024-02-15T12:06:02;9.30;;;3.40;;
78752;SDS011;68072;51.688;7.842;2024-02-15T12:08:46;5.65;;;2.75;;
78752;SDS011;68072;51.688;7.842;2024-02-15T12:11:30;4.25;;;2.78;;
78752;SDS011;68072;51.688;7.842;2024-02-15T12:14:15;3.08;;;2.25;;
78752;SDS011;68072;51.688;7.842;2024-02-15T12:17:02;3.28;;;2.40;;
78752;SDS011;68072;51.688;7.842;2024-02-15T12:19:47;4.20;;;2.60;;
78752;SDS011;68072;51.688;7.842;2024-02-15T12:22:13;6.38;;;2.10;;
78752;SDS011;68072;51.688;7.842;2024-02-15T12:24:40;5.00;;;2.03;;
78752;SDS011;68072;51.688;7.842;2024-02-15T12:27:05;8.53;;;2.13;;
78752;SDS011;68072;51.688;7.842;2024-02-15T12:29:31;3.75;;;2.00;;
78752;SDS011;68072;51.688;7.842;2024-02-15T12:31:58;4.07;;;1.83;;
78752;SDS011;68072;51.688;7.842;2024-02-15T12:34:25;4.28;;;1.63;;
78752;SDS011;68072;51.688;7.842;2024-02-15T12:36:51;3.97;;;1.83;;
78752;SDS011;68072;51.688;7.842;2024-02-15T12:39:30;2.95;;;1.33;;
78752;SDS011;68072;51.688;7.842;2024-02-15T12:41:56;3.33;;;1.30;;
78752;SDS011;68072;51.688;7.842;2024-02-15T12:44:22;8.67;;;1.50;;
78752;SDS011;68072;51.688;7.842;2024-02-15T12:46:54;3.88;;;1.55;;
78752;SDS011;68072;51.688;7.842;2024-02-15T12:51:52;3.73;;;1.50;;
78752;SDS011;68072;51.688;7.842;2024-02-15T12:54:21;2.50;;;1.30;;
78752;SDS011;68072;51.688;7.842;2024-02-15T12:56:49;1.08;;;1.08;;
78752;SDS011;68072;51.688;7.842;2024-02-15T12:59:17;1.92;;;1.55;;
78752;SDS011;68072;51.688;7.842;2024-02-15T13:01:44;5.32;;;1.55;;
78752;SDS011;68072;51.688;7.842;2024-02-15T13:04:21;6.30;;;1.25;;
78752;SDS011;68072;51.688;7.842;2024-02-15T13:06:47;4.32;;;1.05;;
78752;SDS011;68072;51.688;7.842;2024-02-15T13:09:14;1.85;;;1.10;;
78752;SDS011;68072;51.688;7.842;2024-02-15T13:11:39;1.42;;;1.33;;
78752;SDS011;68072;51.688;7.842;2024-02-15T13:14:05;5.40;;;1.27;;
78752;SDS011;68072;51.688;7.842;2024-02-15T13:16:30;2.17;;;1.60;;
78752;SDS011;68072;51.688;7.842;2024-02-15T13:18:56;3.08;;;1.58;;
78752;SDS011;68072;51.688;7.842;2024-02-15T13:21:23;2.67;;;1.00;;
78752;SDS011;68072;51.688;7.842;2024-02-15T13:23:52;4.15;;;1.40;;
78752;SDS011;68072;51.688;7.842;2024-02-15T13:26:18;2.00;;;1.13;;
78752;SDS011;68072;51.688;7.842;2024-02-15T13:28:45;1.98;;;1.10;;
78752;SDS011;68072;51.688;7.842;2024-02-15T13:31:10;2.07;;;1.17;;
78752;SDS011;68072;51.688;7.842;2024-02-15T13:33:37;1.90;;;1.30;;
78752;SDS011;68072;51.688;7.842;2024-02-15T13:36:03;1.73;;;1.27;;
78752;SDS011;68072;51.688;7.842;2024-02-15T13:38:28;6.15;;;1.20;;
78752;SDS011;68072;51.688;7.842;2024-02-15T13:40:55;1.20;;;1.15;;
78752;SDS011;68072;51.688;7.842;2024-02-15T13:43:22;4.25;;;1.10;;
78752;SDS011;68072;51.688;7.842;2024-02-15T13:45:48;1.90;;;1.02;;
78752;SDS011;68072;51.688;7.842;2024-02-15T13:48:14;1.80;;;1.00;;
78752;SDS011;68072;51.688;7.842;2024-02-15T13:50:41;1.33;;;1.20;;
78752;SDS011;68072;51.688;7.842;2024-02-15T13:53:06;1.05;;;1.02;;
78752;SDS011;68072;51.688;7.842;2024-02-15T13:55:34;2.78;;;1.00;;
78752;SDS011;68072;51.688;7.842;2024-02-15T13:58:00;3.95;;;1.10;;
78752;SDS011;68072;51.688;7.842;2024-02-15T14:00:26;3.17;;;1.13;;
78752;SDS011;68072;51.688;7.842;2024-02-15T14:02:57;2.08;;;0.90;;
78752;SDS011;68072;51.688;7.842;2024-02-15T14:05:23;4.07;;;1.80;;
78752;SDS011;68072;51.688;7.842;2024-02-15T14:07:51;3.25;;;0.80;;
78752;SDS011;68072;51.688;7.842;2024-02-15T14:10:20;1.38;;;0.95;;
78752;SDS011;68072;51.688;7.842;2024-02-15T14:12:49;7.82;;;1.55;;
78752;SDS011;68072;51.688;7.842;2024-02-15T14:15:15;1.75;;;1.13;;
78752;SDS011;68072;51.688;7.842;2024-02-15T14:17:45;1.73;;;1.08;;
78752;SDS011;68072;51.688;7.842;2024-02-15T14:20:10;2.28;;;1.08;;
78752;SDS011;68072;51.688;7.842;2024-02-15T14:22:40;2.10;;;1.33;;
78752;SDS011;68072;51.688;7.842;2024-02-15T14:25:08;1.48;;;1.10;;
78752;SDS011;68072;51.688;7.842;2024-02-15T14:27:33;1.08;;;1.00;;
78752;SDS011;68072;51.688;7.842;2024-02-15T14:30:01;3.17;;;0.83;;
78752;SDS011;68072;51.688;7.842;2024-02-15T14:32:49;1.02;;;1.00;;
78752;SDS011;68072;51.688;7.842;2024-02-15T14:35:33;5.07;;;1.05;;
78752;SDS011;68072;51.688;7.842;2024-02-15T14:38:10;1.67;;;1.15;;
78752;SDS011;68072;51.688;7.842;2024-02-15T14:40:38;3.83;;;0.93;;
78752;SDS011;68072;51.688;7.842;2024-02-15T14:43:09;1.10;;;1.10;;
78752;SDS011;68072;51.688;7.842;2024-02-15T14:45:37;3.38;;;1.42;;
78752;SDS011;68072;51.688;7.842;2024-02-15T14:48:03;3.03;;;1.40;;
78752;SDS011;68072;51.688;7.842;2024-02-15T14:50:28;2.42;;;1.15;;
78752;SDS011;68072;51.688;7.842;2024-02-15T14:52:56;1.45;;;1.25;;
78752;SDS011;68072;51.688;7.842;2024-02-15T14:55:23;3.85;;;1.20;;
78752;SDS011;68072;51.688;7.842;2024-02-15T14:57:48;1.37;;;1.00;;
78752;SDS011;68072;51.688;7.842;2024-02-15T15:00:14;4.18;;;1.27;;
78752;SDS011;68072;51.688;7.842;2024-02-15T15:02:42;4.30;;;1.20;;
78752;SDS011;68072;51.688;7.842;2024-02-15T15:05:08;3.33;;;1.38;;
78752;SDS011;68072;51.688;7.842;2024-02-15T15:07:55;1.35;;;0.93;;
78752;SDS011;68072;51.688;7.842;2024-02-15T15:10:40;4.90;;;1.50;;